createdAt,value
2022-12-20T00:00:52.559Z,0
2022-12-20T00:01:53.689Z,0
2022-12-20T00:02:53.750Z,0
2022-12-20T00:03:53.995Z,0
2022-12-20T00:04:53.636Z,0
2022-12-20T00:05:54.590Z,0
2022-12-20T00:06:55.903Z,0
2022-12-20T00:07:56.441Z,0
2022-12-20T00:08:56.347Z,0
2022-12-20T00:09:57.572Z,0
2022-12-20T00:10:58.233Z,0
2022-12-20T00:11:58.978Z,0
2022-12-20T00:12:58.652Z,0
2022-12-20T00:14:00.167Z,0
2022-12-20T00:15:00.390Z,0
2022-12-20T00:16:01.343Z,0
2022-12-20T00:17:01.561Z,0
2022-12-20T00:18:03.267Z,0
2022-12-20T00:19:03.821Z,0
2022-12-20T00:20:04.317Z,0
2022-12-20T00:21:04.295Z,0
2022-12-20T00:22:04.940Z,0
2022-12-20T00:23:04.622Z,0
2022-12-20T00:24:05.578Z,0
2022-12-20T00:25:06.563Z,0
2022-12-20T00:26:07.070Z,0
2022-12-20T00:27:07.604Z,0
2022-12-20T00:28:07.514Z,0
2022-12-20T00:29:08.073Z,0
2022-12-20T00:30:08.610Z,0
2022-12-20T00:31:08.656Z,0
2022-12-20T00:32:09.957Z,0
2022-12-20T00:33:09.640Z,0
2022-12-20T00:34:11.156Z,0
2022-12-20T00:35:11.703Z,0
2022-12-20T00:36:11.752Z,0
2022-12-20T00:37:12.966Z,0
2022-12-20T00:38:13.269Z,0
2022-12-20T00:39:13.480Z,0
2022-12-20T00:40:13.711Z,0
2022-12-20T00:41:14.229Z,0
2022-12-20T00:42:15.101Z,0
2022-12-20T00:43:15.345Z,0
2022-12-20T00:44:15.621Z,0
2022-12-20T00:45:16.635Z,0
2022-12-20T00:46:17.408Z,0
2022-12-20T00:47:18.730Z,0
2022-12-20T00:48:19.250Z,0
2022-12-20T00:49:19.144Z,0
2022-12-20T00:50:20.070Z,0
2022-12-20T00:51:21.595Z,0
2022-12-20T00:52:21.592Z,0
2022-12-20T00:53:28.151Z,0
2022-12-20T00:54:23.372Z,0
2022-12-20T00:55:23.560Z,0
2022-12-20T00:56:25.750Z,0
2022-12-20T00:57:25.317Z,0
2022-12-20T00:58:25.555Z,0
2022-12-20T00:59:26.091Z,0
2022-12-20T01:00:25.993Z,0
2022-12-20T01:01:27.530Z,0
2022-12-20T01:02:28.261Z,0
2022-12-20T01:03:28.482Z,0
2022-12-20T01:04:27.479Z,0
2022-12-20T01:05:28.181Z,0
2022-12-20T01:06:28.870Z,0
2022-12-20T01:07:30.360Z,0
2022-12-20T01:08:30.627Z,0
2022-12-20T01:09:31.163Z,0
2022-12-20T01:10:31.355Z,0
2022-12-20T01:11:31.284Z,0
2022-12-20T01:12:32.030Z,0
2022-12-20T01:13:32.964Z,0
2022-12-20T01:14:33.356Z,0
2022-12-20T01:15:34.583Z,0
2022-12-20T01:16:35.306Z,0
2022-12-20T01:17:35.284Z,0
2022-12-20T01:18:36.562Z,0
2022-12-20T01:19:36.759Z,0
2022-12-20T01:20:37.685Z,0
2022-12-20T01:21:38.928Z,0
2022-12-20T01:22:42.450Z,0
2022-12-20T01:23:39.830Z,0
2022-12-20T01:24:40.060Z,0
2022-12-20T01:25:42.237Z,0
2022-12-20T01:26:40.001Z,0
2022-12-20T01:27:41.206Z,0
2022-12-20T01:28:41.860Z,0
2022-12-20T01:29:42.811Z,0
2022-12-20T01:30:43.019Z,0
2022-12-20T01:31:44.244Z,0
2022-12-20T01:32:43.177Z,0
2022-12-20T01:33:44.141Z,0
2022-12-20T01:34:44.797Z,0
2022-12-20T01:35:46.044Z,0
2022-12-20T01:36:46.292Z,0
2022-12-20T01:37:46.815Z,0
2022-12-20T01:38:47.187Z,0
2022-12-20T01:39:47.127Z,0
2022-12-20T01:40:48.332Z,0
2022-12-20T01:41:48.286Z,0
2022-12-20T01:42:48.631Z,0
2022-12-20T01:43:48.014Z,0
2022-12-20T01:44:49.272Z,0
2022-12-20T01:45:49.798Z,0
2022-12-20T01:46:50.594Z,0
2022-12-20T01:47:51.080Z,0
2022-12-20T01:48:51.046Z,0
2022-12-20T01:49:51.030Z,0
2022-12-20T01:50:52.517Z,0
2022-12-20T01:51:52.199Z,0
2022-12-20T01:52:52.925Z,0
2022-12-20T01:53:53.211Z,0
2022-12-20T01:54:53.716Z,0
2022-12-20T01:55:53.949Z,0
2022-12-20T01:56:54.161Z,0
2022-12-20T01:57:54.411Z,0
2022-12-20T01:58:54.349Z,0
2022-12-20T01:59:54.591Z,0
2022-12-20T02:00:55.079Z,0
2022-12-20T02:01:55.819Z,0
2022-12-20T02:02:56.313Z,0
2022-12-20T02:03:56.325Z,0
2022-12-20T02:04:56.538Z,0
2022-12-20T02:05:56.754Z,0
2022-12-20T02:06:56.978Z,0
2022-12-20T02:07:57.923Z,0
2022-12-20T02:08:58.380Z,0
2022-12-20T02:09:58.621Z,0
2022-12-20T02:10:59.019Z,0
2022-12-20T02:11:59.969Z,0
2022-12-20T02:13:00.426Z,0
2022-12-20T02:14:01.371Z,0
2022-12-20T02:15:02.351Z,0
2022-12-20T02:16:02.605Z,0
2022-12-20T02:17:02.929Z,0
2022-12-20T02:18:03.881Z,0
2022-12-20T02:19:04.129Z,0
2022-12-20T02:20:04.063Z,0
2022-12-20T02:21:04.985Z,0
2022-12-20T02:22:06.502Z,0
2022-12-20T02:23:06.832Z,0
2022-12-20T02:24:06.833Z,0
2022-12-20T02:25:08.063Z,0
2022-12-20T02:26:08.261Z,0
2022-12-20T02:27:08.492Z,0
2022-12-20T02:28:09.007Z,0
2022-12-20T02:29:09.210Z,0
2022-12-20T02:30:09.162Z,0
2022-12-20T02:31:09.384Z,0
2022-12-20T02:32:10.450Z,0
2022-12-20T02:33:10.272Z,0
2022-12-20T02:34:10.945Z,0
2022-12-20T02:35:11.591Z,0
2022-12-20T02:36:12.508Z,0
2022-12-20T02:37:14.021Z,0
2022-12-20T02:38:14.216Z,0
2022-12-20T02:39:14.450Z,0
2022-12-20T02:40:14.951Z,0
2022-12-20T02:41:15.182Z,0
2022-12-20T02:42:15.697Z,0
2022-12-20T02:43:16.033Z,0
2022-12-20T02:44:15.959Z,0
2022-12-20T02:45:17.207Z,0
2022-12-20T02:46:17.696Z,0
2022-12-20T02:47:17.700Z,0
2022-12-20T02:48:18.627Z,0
2022-12-20T02:49:20.138Z,0
2022-12-20T02:50:20.055Z,0
2022-12-20T02:51:20.982Z,0
2022-12-20T02:52:21.953Z,0
2022-12-20T02:53:22.715Z,0
2022-12-20T02:54:22.842Z,0
2022-12-20T02:55:22.806Z,0
2022-12-20T02:56:24.306Z,0
2022-12-20T02:57:24.505Z,0
2022-12-20T02:58:24.439Z,0
2022-12-20T02:59:25.971Z,0
2022-12-20T03:00:26.554Z,0
2022-12-20T03:01:27.191Z,0
2022-12-20T03:02:28.247Z,0
2022-12-20T03:03:28.569Z,0
2022-12-20T03:04:29.122Z,0
2022-12-20T03:05:29.375Z,0
2022-12-20T03:06:30.629Z,0
2022-12-20T03:07:30.713Z,0
2022-12-20T03:08:31.679Z,0
2022-12-20T03:09:32.682Z,0
2022-12-20T03:10:33.250Z,0
2022-12-20T03:11:33.224Z,0
2022-12-20T03:12:33.600Z,0
2022-12-20T03:13:34.905Z,0
2022-12-20T03:14:35.590Z,0
2022-12-20T03:15:36.574Z,0
2022-12-20T03:16:36.835Z,0
2022-12-20T03:17:37.815Z,0
2022-12-20T03:18:37.476Z,0
2022-12-20T03:19:38.707Z,0
2022-12-20T03:20:39.041Z,0
2022-12-20T03:21:40.242Z,0
2022-12-20T03:22:40.479Z,0
2022-12-20T03:23:40.920Z,0
2022-12-20T03:24:41.178Z,0
2022-12-20T03:25:41.111Z,0
2022-12-20T03:26:42.131Z,0
2022-12-20T03:27:42.785Z,0
2022-12-20T03:28:43.787Z,0
2022-12-20T03:29:44.733Z,0
2022-12-20T03:30:45.286Z,0
2022-12-20T03:31:45.662Z,0
2022-12-20T03:32:45.876Z,0
2022-12-20T03:33:46.650Z,0
2022-12-20T03:34:47.651Z,0
2022-12-20T03:35:47.870Z,0
2022-12-20T03:36:47.801Z,0
2022-12-20T03:37:49.035Z,0
2022-12-20T03:38:49.229Z,0
2022-12-20T03:39:49.483Z,0
2022-12-20T03:40:49.406Z,0
2022-12-20T03:41:50.679Z,0
2022-12-20T03:42:50.606Z,0
2022-12-20T03:43:51.721Z,0
2022-12-20T03:44:53.350Z,0
2022-12-20T03:45:53.712Z,0
2022-12-20T03:46:54.379Z,0
2022-12-20T03:47:54.340Z,0
2022-12-20T03:48:55.831Z,0
2022-12-20T03:49:56.092Z,0
2022-12-20T03:50:55.992Z,0
2022-12-20T03:51:56.645Z,0
2022-12-20T03:52:58.218Z,0
2022-12-20T03:53:58.532Z,0
2022-12-20T03:54:59.077Z,0
2022-12-20T03:56:01.927Z,0
2022-12-20T03:56:59.585Z,0
2022-12-20T03:58:00.799Z,0
2022-12-20T03:59:01.041Z,0
2022-12-20T04:00:00.794Z,0
2022-12-20T04:01:02.091Z,0
2022-12-20T04:02:03.823Z,0
2022-12-20T04:03:05.604Z,0
2022-12-20T04:04:05.754Z,0
2022-12-20T04:05:06.264Z,0
2022-12-20T04:06:06.463Z,0
2022-12-20T04:07:07.128Z,0
2022-12-20T04:08:08.385Z,0
2022-12-20T04:09:08.573Z,0
2022-12-20T04:10:08.846Z,0
2022-12-20T04:11:09.043Z,0
2022-12-20T04:12:08.983Z,0
2022-12-20T04:13:10.270Z,0
2022-12-20T04:14:11.436Z,0
2022-12-20T04:15:10.657Z,0
2022-12-20T04:16:17.182Z,0
2022-12-20T04:17:11.134Z,0
2022-12-20T04:18:12.628Z,0
2022-12-20T04:19:12.566Z,0
2022-12-20T04:20:13.134Z,0
2022-12-20T04:21:12.804Z,0
2022-12-20T04:22:21.248Z,0
2022-12-20T04:23:14.784Z,0
2022-12-20T04:24:14.543Z,0
2022-12-20T04:25:16.098Z,0
2022-12-20T04:26:16.623Z,0
2022-12-20T04:27:16.850Z,0
2022-12-20T04:28:17.509Z,0
2022-12-20T04:29:18.712Z,0
2022-12-20T04:30:18.903Z,0
2022-12-20T04:31:27.230Z,0
2022-12-20T04:32:20.560Z,0
2022-12-20T04:33:20.763Z,0
2022-12-20T04:34:20.779Z,0
2022-12-20T04:35:22.292Z,0
2022-12-20T04:36:22.233Z,0
2022-12-20T04:37:23.208Z,0
2022-12-20T04:38:24.441Z,0
2022-12-20T04:39:24.657Z,0
2022-12-20T04:40:24.634Z,0
2022-12-20T04:41:24.840Z,0
2022-12-20T04:42:25.489Z,0
2022-12-20T04:43:26.719Z,0
2022-12-20T04:44:27.135Z,0
2022-12-20T04:45:26.783Z,0
2022-12-20T04:46:28.058Z,0
2022-12-20T04:47:27.458Z,0
2022-12-20T04:49:11.415Z,0
2022-12-20T04:50:28.738Z,0
2022-12-20T04:51:29.675Z,0
2022-12-20T04:52:30.173Z,0
2022-12-20T04:53:30.732Z,0
2022-12-20T04:54:30.457Z,0
2022-12-20T04:55:31.737Z,0
2022-12-20T04:56:31.432Z,0
2022-12-20T04:57:32.096Z,0
2022-12-20T04:58:33.329Z,0
2022-12-20T04:59:33.260Z,0
2022-12-20T05:00:33.952Z,0
2022-12-20T05:01:35.977Z,0
2022-12-20T05:02:36.968Z,0
2022-12-20T05:03:37.299Z,0
2022-12-20T05:04:48.505Z,0
2022-12-20T05:05:38.459Z,0
2022-12-20T05:06:39.114Z,0
2022-12-20T05:07:40.059Z,0
2022-12-20T05:08:40.718Z,0
2022-12-20T05:09:41.660Z,0
2022-12-20T05:10:43.205Z,0
2022-12-20T05:11:42.842Z,0
2022-12-20T05:12:43.230Z,0
2022-12-20T05:13:43.305Z,0
2022-12-20T05:14:44.088Z,0
2022-12-20T05:15:45.120Z,0
2022-12-20T05:16:46.079Z,0
2022-12-20T05:17:46.028Z,0
2022-12-20T05:18:54.308Z,0
2022-12-20T05:19:47.259Z,0
2022-12-20T05:20:48.794Z,0
2022-12-20T05:21:49.005Z,0
2022-12-20T05:22:49.232Z,0
2022-12-20T05:23:49.767Z,0
2022-12-20T05:24:49.594Z,0
2022-12-20T05:25:50.870Z,0
2022-12-20T05:26:50.521Z,0
2022-12-20T05:27:52.013Z,0
2022-12-20T05:28:51.920Z,0
2022-12-20T05:29:52.938Z,0
2022-12-20T05:30:54.472Z,0
2022-12-20T05:31:55.276Z,0
2022-12-20T05:32:55.526Z,0
2022-12-20T05:33:55.518Z,0
2022-12-20T05:34:56.867Z,0
2022-12-20T05:35:57.093Z,0
2022-12-20T05:36:57.771Z,0
2022-12-20T05:37:59.000Z,0
2022-12-20T05:39:07.198Z,0
2022-12-20T05:40:00.404Z,0
2022-12-20T05:41:01.202Z,0
2022-12-20T05:42:02.732Z,0
2022-12-20T05:43:02.664Z,0
2022-12-20T05:44:03.879Z,0
2022-12-20T05:45:03.936Z,0
2022-12-20T05:46:05.324Z,0
2022-12-20T05:47:06.152Z,0
2022-12-20T05:48:05.556Z,0
2022-12-20T05:49:06.224Z,0
2022-12-20T05:50:08.622Z,0
2022-12-20T05:51:07.995Z,0
2022-12-20T05:52:08.929Z,0
2022-12-20T05:53:16.488Z,0
2022-12-20T05:54:09.477Z,0
2022-12-20T05:55:09.950Z,0
2022-12-20T05:56:10.965Z,0
2022-12-20T05:57:11.903Z,0
2022-12-20T05:58:12.838Z,0
2022-12-20T05:59:12.481Z,0
2022-12-20T06:00:13.440Z,0
2022-12-20T06:01:13.803Z,0
2022-12-20T06:02:16.272Z,0
2022-12-20T06:03:16.796Z,0
2022-12-20T06:04:16.014Z,0
2022-12-20T06:05:16.636Z,0
2022-12-20T06:06:25.487Z,0
2022-12-20T06:07:16.697Z,0
2022-12-20T06:08:16.682Z,0
2022-12-20T06:09:17.647Z,0
2022-12-20T06:10:17.858Z,0
2022-12-20T06:11:17.876Z,0
2022-12-20T06:12:18.888Z,0
2022-12-20T06:13:19.529Z,0
2022-12-20T06:14:19.865Z,0
2022-12-20T06:15:21.365Z,0
2022-12-20T06:16:22.639Z,0
2022-12-20T06:17:22.338Z,0
2022-12-20T06:18:23.034Z,0
2022-12-20T06:19:32.525Z,0
2022-12-20T06:20:25.029Z,0
2022-12-20T06:21:25.280Z,0
2022-12-20T06:22:26.234Z,0
2022-12-20T06:23:26.562Z,0
2022-12-20T06:24:27.855Z,0
2022-12-20T06:25:27.972Z,0
2022-12-20T06:26:29.238Z,0
2022-12-20T06:27:29.445Z,0
2022-12-20T06:28:29.786Z,0
2022-12-20T06:29:29.993Z,0
2022-12-20T06:30:37.365Z,0
2022-12-20T06:31:31.890Z,0
2022-12-20T06:32:31.917Z,0
2022-12-20T06:33:32.555Z,0
2022-12-20T06:34:34.053Z,0
2022-12-20T06:35:33.784Z,0
2022-12-20T06:36:34.728Z,0
2022-12-20T06:37:34.933Z,0
2022-12-20T06:38:34.595Z,0
2022-12-20T06:39:35.562Z,0
2022-12-20T06:40:35.763Z,0
2022-12-20T06:41:35.756Z,0
2022-12-20T06:42:36.668Z,0
2022-12-20T06:43:37.593Z,0
2022-12-20T06:44:38.825Z,0
2022-12-20T06:45:46.508Z,0
2022-12-20T06:46:40.141Z,0
2022-12-20T06:47:39.850Z,0
2022-12-20T06:48:40.816Z,0
2022-12-20T06:49:40.764Z,0
2022-12-20T06:50:41.995Z,0
2022-12-20T06:51:43.256Z,0
2022-12-20T06:52:43.925Z,0
2022-12-20T06:53:43.571Z,0
2022-12-20T06:54:44.815Z,0
2022-12-20T06:55:44.639Z,0
2022-12-20T06:56:52.626Z,0
2022-12-20T06:57:46.589Z,0
2022-12-20T06:58:47.527Z,0
2022-12-20T06:59:49.030Z,0
2022-12-20T07:00:49.716Z,0
2022-12-20T07:01:51.344Z,0
2022-12-20T07:02:51.552Z,0
2022-12-20T07:03:51.069Z,0
2022-12-20T07:04:50.438Z,0
2022-12-20T07:05:52.099Z,0
2022-12-20T07:06:52.642Z,0
2022-12-20T07:08:00.939Z,0
2022-12-20T07:08:52.871Z,0
2022-12-20T07:09:54.217Z,5.63
2022-12-20T07:10:54.842Z,5.63
2022-12-20T07:11:55.131Z,5.63
2022-12-20T07:13:02.066Z,5.63
2022-12-20T07:13:56.581Z,5.63
2022-12-20T07:14:56.792Z,5.63
2022-12-20T07:15:56.864Z,5.63
2022-12-20T07:16:59.370Z,5.63
2022-12-20T07:17:58.921Z,11.25
2022-12-20T07:18:58.538Z,11.25
2022-12-20T07:20:12.899Z,11.25
2022-12-20T07:21:00.373Z,11.25
2022-12-20T07:22:01.372Z,11.25
2022-12-20T07:23:01.609Z,11.25
2022-12-20T07:24:01.292Z,16.88
2022-12-20T07:25:02.605Z,16.88
2022-12-20T07:26:02.960Z,16.88
2022-12-20T07:27:03.247Z,16.88
2022-12-20T07:28:03.318Z,16.88
2022-12-20T07:29:04.236Z,16.88
2022-12-20T07:30:04.903Z,22.5
2022-12-20T07:31:05.629Z,22.5
2022-12-20T07:32:07.314Z,22.5
2022-12-20T07:33:07.581Z,22.5
2022-12-20T07:34:07.519Z,22.5
2022-12-20T07:35:08.174Z,22.5
2022-12-20T07:36:11.721Z,28.13
2022-12-20T07:37:09.974Z,28.13
2022-12-20T07:38:10.977Z,28.13
2022-12-20T07:39:11.710Z,28.13
2022-12-20T07:40:12.676Z,28.13
2022-12-20T07:41:13.370Z,28.13
2022-12-20T07:42:14.414Z,33.75
2022-12-20T07:43:15.208Z,33.75
2022-12-20T07:44:15.546Z,33.75
2022-12-20T07:45:15.513Z,33.75
2022-12-20T07:46:17.669Z,33.75
2022-12-20T07:47:16.787Z,33.75
2022-12-20T07:48:32.589Z,33.75
2022-12-20T07:49:18.562Z,33.75
2022-12-20T07:50:18.849Z,39.38
2022-12-20T07:51:18.828Z,39.38
2022-12-20T07:52:20.409Z,39.38
2022-12-20T07:53:20.130Z,39.38
2022-12-20T07:54:20.643Z,39.38
2022-12-20T07:55:22.146Z,39.38
2022-12-20T07:56:22.975Z,39.38
2022-12-20T07:57:23.511Z,39.38
2022-12-20T07:58:23.738Z,39.38
2022-12-20T07:59:23.661Z,39.38
2022-12-20T08:00:24.643Z,39.38
2022-12-20T08:01:27.073Z,39.38
2022-12-20T08:02:27.688Z,39.38
2022-12-20T08:03:27.911Z,39.38
2022-12-20T08:04:27.020Z,39.38
2022-12-20T08:05:26.662Z,39.38
2022-12-20T08:06:27.440Z,39.38
2022-12-20T08:07:28.384Z,39.38
2022-12-20T08:08:29.348Z,39.38
2022-12-20T08:09:29.706Z,39.38
2022-12-20T08:10:32.054Z,39.38
2022-12-20T08:11:31.998Z,45
2022-12-20T08:12:33.282Z,45
2022-12-20T08:13:33.510Z,45
2022-12-20T08:14:34.170Z,45
2022-12-20T08:15:34.916Z,45
2022-12-20T08:16:36.688Z,45
2022-12-20T08:17:36.695Z,45
2022-12-20T08:18:37.363Z,45
2022-12-20T08:19:44.528Z,45
2022-12-20T08:20:38.746Z,45
2022-12-20T08:21:38.972Z,45
2022-12-20T08:22:39.216Z,45
2022-12-20T08:23:39.840Z,45
2022-12-20T08:24:41.214Z,45
2022-12-20T08:25:51.564Z,45
2022-12-20T08:26:41.941Z,45
2022-12-20T08:27:42.205Z,45
2022-12-20T08:28:42.693Z,45
2022-12-20T08:29:42.066Z,45
2022-12-20T08:30:44.754Z,45
2022-12-20T08:31:53.140Z,45
2022-12-20T08:32:45.381Z,45
2022-12-20T08:33:45.614Z,45
2022-12-20T08:34:45.828Z,50.63
2022-12-20T08:35:45.789Z,50.63
2022-12-20T08:36:46.828Z,50.63
2022-12-20T08:37:47.109Z,50.63
2022-12-20T08:38:47.308Z,50.63
2022-12-20T08:39:47.235Z,50.63
2022-12-20T08:40:48.253Z,50.63
2022-12-20T08:41:48.763Z,50.63
2022-12-20T08:42:49.112Z,50.63
2022-12-20T08:43:48.805Z,50.63
2022-12-20T08:44:49.452Z,50.63
2022-12-20T08:45:50.998Z,50.63
2022-12-20T08:46:52.245Z,50.63
2022-12-20T08:47:52.174Z,50.63
2022-12-20T08:48:53.200Z,50.63
2022-12-20T08:49:59.419Z,56.25
2022-12-20T08:50:55.571Z,56.25
2022-12-20T08:51:54.728Z,56.25
2022-12-20T08:52:55.976Z,56.25
2022-12-20T08:53:56.625Z,56.25
2022-12-20T08:54:58.465Z,56.25
2022-12-20T08:55:58.762Z,61.88
2022-12-20T08:56:59.842Z,56.25
2022-12-20T08:58:00.564Z,61.88
2022-12-20T08:59:01.818Z,61.88
2022-12-20T09:00:02.771Z,61.88
2022-12-20T09:01:07.295Z,61.88
2022-12-20T09:02:04.260Z,61.88
2022-12-20T09:03:05.850Z,67.5
2022-12-20T09:04:05.853Z,67.5
2022-12-20T09:05:05.116Z,67.5
2022-12-20T09:06:05.622Z,73.13
2022-12-20T09:07:05.788Z,73.13
2022-12-20T09:08:07.332Z,73.13
2022-12-20T09:09:07.291Z,78.75
2022-12-20T09:10:07.690Z,78.75
2022-12-20T09:11:08.933Z,78.75
2022-12-20T09:12:09.158Z,84.38
2022-12-20T09:13:09.422Z,84.38
2022-12-20T09:14:09.393Z,90
2022-12-20T09:15:10.608Z,90
2022-12-20T09:16:11.545Z,90
2022-12-20T09:17:11.314Z,90
2022-12-20T09:18:11.563Z,95.63
2022-12-20T09:19:19.417Z,95.63
2022-12-20T09:20:12.381Z,101.25
2022-12-20T09:21:12.791Z,106.88
2022-12-20T09:22:14.347Z,112.5
2022-12-20T09:23:14.288Z,118.13
2022-12-20T09:24:15.565Z,129.38
2022-12-20T09:25:15.251Z,129.38
2022-12-20T09:26:15.944Z,135
2022-12-20T09:27:16.494Z,135
2022-12-20T09:28:17.067Z,135
2022-12-20T09:29:23.094Z,135
2022-12-20T09:30:18.188Z,140.63
2022-12-20T09:31:19.136Z,146.25
2022-12-20T09:32:19.125Z,157.5
2022-12-20T09:33:26.559Z,185.63
2022-12-20T09:34:21.069Z,180
2022-12-20T09:35:27.990Z,202.5
2022-12-20T09:36:21.937Z,230.63
2022-12-20T09:37:23.051Z,219.38
2022-12-20T09:38:23.828Z,286.88
2022-12-20T09:39:24.323Z,247.5
2022-12-20T09:40:24.253Z,230.63
2022-12-20T09:41:33.686Z,185.63
2022-12-20T09:42:25.643Z,180
2022-12-20T09:43:26.647Z,163.13
2022-12-20T09:44:26.941Z,185.63
2022-12-20T09:45:27.922Z,180
2022-12-20T09:46:30.569Z,146.25
2022-12-20T09:47:28.543Z,135
2022-12-20T09:48:29.569Z,151.88
2022-12-20T09:49:29.559Z,146.25
2022-12-20T09:50:30.432Z,151.88
2022-12-20T09:51:31.930Z,135
2022-12-20T09:52:32.452Z,196.88
2022-12-20T09:53:35.648Z,140.63
2022-12-20T09:54:33.627Z,208.13
2022-12-20T09:55:33.870Z,151.88
2022-12-20T09:56:34.085Z,140.63
2022-12-20T09:57:35.151Z,168.75
2022-12-20T09:58:35.440Z,180
2022-12-20T09:59:46.049Z,140.63
2022-12-20T10:00:36.807Z,135
2022-12-20T10:01:51.090Z,118.13
2022-12-20T10:03:22.463Z,106.88
2022-12-20T10:03:41.529Z,106.88
2022-12-20T10:04:41.768Z,101.25
2022-12-20T10:05:52.441Z,101.25
2022-12-20T10:06:41.467Z,101.25
2022-12-20T10:07:41.807Z,101.25
2022-12-20T10:08:43.058Z,101.25
2022-12-20T10:09:43.299Z,101.25
2022-12-20T10:10:43.510Z,101.25
2022-12-20T10:12:01.168Z,101.25
2022-12-20T10:12:44.163Z,101.25
2022-12-20T10:13:45.428Z,101.25
2022-12-20T10:14:45.089Z,101.25
2022-12-20T10:15:46.532Z,101.25
2022-12-20T10:16:47.069Z,106.88
2022-12-20T10:17:49.131Z,106.88
2022-12-20T10:18:48.051Z,112.5
2022-12-20T10:19:49.595Z,112.5
2022-12-20T10:20:49.304Z,118.13
2022-12-20T10:21:50.535Z,118.13
2022-12-20T10:22:50.766Z,123.75
2022-12-20T10:23:50.741Z,129.38
2022-12-20T10:24:51.966Z,129.38
2022-12-20T10:25:53.252Z,135
2022-12-20T10:26:53.047Z,140.63
2022-12-20T10:27:53.884Z,151.88
2022-12-20T10:28:59.695Z,163.13
2022-12-20T10:29:54.632Z,174.38
2022-12-20T10:30:55.760Z,174.38
2022-12-20T10:31:56.462Z,168.75
2022-12-20T10:32:57.002Z,157.5
2022-12-20T10:33:57.313Z,140.63
2022-12-20T10:35:04.583Z,135
2022-12-20T10:35:58.104Z,135
2022-12-20T10:36:58.596Z,140.63
2022-12-20T10:38:23.295Z,157.5
2022-12-20T10:38:59.255Z,174.38
2022-12-20T10:40:03.583Z,191.25
2022-12-20T10:41:36.749Z,202.5
2022-12-20T10:42:01.281Z,196.88
2022-12-20T10:43:01.580Z,196.88
2022-12-20T10:44:02.564Z,213.75
2022-12-20T10:45:03.130Z,225
2022-12-20T10:46:03.074Z,225
2022-12-20T10:47:04.414Z,196.88
2022-12-20T10:48:04.773Z,180
2022-12-20T10:49:06.043Z,163.13
2022-12-20T10:50:07.033Z,163.13
2022-12-20T10:51:12.067Z,163.13
2022-12-20T10:52:07.860Z,157.5
2022-12-20T10:53:09.375Z,151.88
2022-12-20T10:54:09.917Z,157.5
2022-12-20T10:55:09.845Z,157.5
2022-12-20T10:56:10.789Z,157.5
2022-12-20T10:57:18.285Z,157.5
2022-12-20T10:58:12.667Z,151.88
2022-12-20T10:59:14.119Z,151.88
2022-12-20T11:00:14.391Z,157.5
2022-12-20T11:01:14.061Z,163.13
2022-12-20T11:02:15.151Z,151.88
2022-12-20T11:03:17.312Z,140.63
2022-12-20T11:04:16.520Z,135
2022-12-20T11:05:16.657Z,135
2022-12-20T11:06:17.191Z,129.38
2022-12-20T11:07:17.446Z,129.38
2022-12-20T11:09:11.893Z,129.38
2022-12-20T11:09:54.336Z,123.75
2022-12-20T11:10:54.468Z,123.75
2022-12-20T11:11:54.983Z,118.13
2022-12-20T11:12:55.522Z,112.5
2022-12-20T11:13:56.234Z,112.5
2022-12-20T11:14:57.166Z,112.5
2022-12-20T11:15:58.204Z,106.88
2022-12-20T11:16:59.246Z,112.5
2022-12-20T11:17:58.788Z,112.5
2022-12-20T11:18:58.271Z,112.5
2022-12-20T11:19:59.795Z,106.88
2022-12-20T11:20:59.792Z,112.5
2022-12-20T11:22:00.016Z,106.88
2022-12-20T11:22:59.986Z,101.25
2022-12-20T11:24:00.630Z,101.25
2022-12-20T11:25:01.598Z,101.25
2022-12-20T11:26:01.970Z,101.25
2022-12-20T11:27:02.911Z,95.63
2022-12-20T11:28:03.579Z,95.63
2022-12-20T11:29:04.707Z,95.63
2022-12-20T11:30:05.982Z,95.63
2022-12-20T11:31:06.393Z,95.63
2022-12-20T11:32:06.424Z,95.63
2022-12-20T11:33:07.094Z,95.63
2022-12-20T11:34:08.339Z,95.63
2022-12-20T11:35:08.842Z,95.63
2022-12-20T11:36:08.553Z,101.25
2022-12-20T11:37:09.487Z,95.63
2022-12-20T11:38:20.714Z,95.63
2022-12-20T11:39:10.794Z,95.63
2022-12-20T11:40:11.776Z,95.63
2022-12-20T11:41:12.010Z,95.63
2022-12-20T11:42:12.983Z,95.63
2022-12-20T11:43:12.690Z,90
2022-12-20T11:44:47.373Z,90
2022-12-20T11:45:29.568Z,90
2022-12-20T11:46:16.158Z,90
2022-12-20T11:47:17.181Z,90
2022-12-20T11:48:17.461Z,84.38
2022-12-20T11:49:17.003Z,84.38
2022-12-20T11:50:17.969Z,84.38
2022-12-20T11:51:32.214Z,84.38
2022-12-20T11:52:20.164Z,84.38
2022-12-20T11:53:20.133Z,84.38
2022-12-20T11:54:21.358Z,78.75
2022-12-20T11:55:21.642Z,78.75
2022-12-20T11:56:21.863Z,73.13
2022-12-20T11:57:21.817Z,73.13
2022-12-20T11:58:38.235Z,67.5
2022-12-20T11:59:26.363Z,67.5
2022-12-20T12:00:26.940Z,61.88
2022-12-20T12:01:27.122Z,61.88
2022-12-20T12:02:28.454Z,56.25
2022-12-20T12:03:28.006Z,56.25
2022-12-20T12:04:28.259Z,56.25
2022-12-20T12:05:28.612Z,56.25
2022-12-20T12:06:28.944Z,56.25
2022-12-20T12:07:29.175Z,56.25
2022-12-20T12:08:34.170Z,56.25
2022-12-20T12:09:30.517Z,56.25
2022-12-20T12:10:30.803Z,56.25
2022-12-20T12:12:21.177Z,56.25
2022-12-20T12:12:38.175Z,56.25
2022-12-20T12:13:39.887Z,56.25
2022-12-20T12:14:40.167Z,61.88
2022-12-20T12:15:40.176Z,61.88
2022-12-20T12:16:42.003Z,61.88
2022-12-20T12:17:42.567Z,61.88
2022-12-20T12:18:42.817Z,67.5
2022-12-20T12:19:43.889Z,73.13
2022-12-20T12:20:43.869Z,78.75
2022-12-20T12:21:44.122Z,95.63
2022-12-20T12:22:44.376Z,118.13
2022-12-20T12:23:44.039Z,123.75
2022-12-20T12:24:44.677Z,129.38
2022-12-20T12:25:46.937Z,174.38
2022-12-20T12:26:45.691Z,157.5
2022-12-20T12:27:47.126Z,180
2022-12-20T12:28:47.074Z,151.88
2022-12-20T12:29:48.767Z,168.75
2022-12-20T12:30:49.249Z,230.63
2022-12-20T12:31:49.895Z,219.38
2022-12-20T12:32:50.289Z,140.63
2022-12-20T12:33:55.432Z,174.38
2022-12-20T12:34:51.417Z,140.63
2022-12-20T12:35:52.437Z,146.25
2022-12-20T12:36:52.763Z,151.88
2022-12-20T12:37:53.884Z,123.75
2022-12-20T12:38:56.979Z,118.13
2022-12-20T12:39:55.110Z,112.5
2022-12-20T12:41:04.008Z,112.5
2022-12-20T12:41:55.312Z,112.5
2022-12-20T12:42:56.546Z,118.13
2022-12-20T12:43:56.217Z,112.5
2022-12-20T12:44:57.765Z,118.13
2022-12-20T12:45:57.877Z,123.75
2022-12-20T12:46:58.265Z,123.75
2022-12-20T12:47:58.775Z,123.75
2022-12-20T12:48:58.729Z,112.5
2022-12-20T12:49:59.499Z,112.5
2022-12-20T12:51:00.178Z,106.88
2022-12-20T12:52:01.207Z,101.25
2022-12-20T12:53:02.128Z,101.25
2022-12-20T12:54:03.347Z,95.63
2022-12-20T12:55:03.843Z,95.63
2022-12-20T12:56:53.070Z,95.63
2022-12-20T12:57:10.294Z,95.63
2022-12-20T12:58:11.587Z,95.63
2022-12-20T12:59:11.815Z,95.63
2022-12-20T13:00:11.881Z,95.63
2022-12-20T13:01:13.554Z,112.5
2022-12-20T13:02:15.779Z,168.75
2022-12-20T13:03:15.255Z,185.63
2022-12-20T13:04:14.620Z,135
2022-12-20T13:05:15.395Z,129.38
2022-12-20T13:06:15.483Z,151.88
2022-12-20T13:07:16.724Z,123.75
2022-12-20T13:08:17.387Z,146.25
2022-12-20T13:09:18.312Z,140.63
2022-12-20T13:10:19.451Z,185.63
2022-12-20T13:11:20.118Z,247.5
2022-12-20T13:12:28.193Z,202.5
2022-12-20T13:13:22.129Z,208.13
2022-12-20T13:14:22.647Z,196.88
2022-12-20T13:15:23.141Z,174.38
2022-12-20T13:16:35.992Z,219.38
2022-12-20T13:17:37.856Z,264.38
2022-12-20T13:18:23.859Z,219.38
2022-12-20T13:19:24.790Z,168.75
2022-12-20T13:20:25.853Z,196.88
2022-12-20T13:21:26.830Z,129.38
2022-12-20T13:22:27.533Z,129.38
2022-12-20T13:23:27.756Z,123.75
2022-12-20T13:24:27.977Z,129.38
2022-12-20T13:25:33.220Z,112.5
2022-12-20T13:26:28.161Z,140.63
2022-12-20T13:27:28.548Z,185.63
2022-12-20T13:28:30.123Z,129.38
2022-12-20T13:29:29.806Z,101.25
2022-12-20T13:30:31.434Z,95.63
2022-12-20T13:31:31.978Z,90
2022-12-20T13:32:32.241Z,101.25
2022-12-20T13:33:33.293Z,84.38
2022-12-20T13:34:33.230Z,84.38
2022-12-20T13:35:34.188Z,78.75
2022-12-20T13:36:35.401Z,78.75
2022-12-20T13:37:36.027Z,78.75
2022-12-20T13:38:35.965Z,84.38
2022-12-20T13:39:36.958Z,112.5
2022-12-20T13:40:37.031Z,78.75
2022-12-20T13:41:46.427Z,73.13
2022-12-20T13:42:37.105Z,73.13
2022-12-20T13:43:38.361Z,73.13
2022-12-20T13:44:39.022Z,73.13
2022-12-20T13:45:40.487Z,67.5
2022-12-20T13:46:41.353Z,61.88
2022-12-20T13:47:41.621Z,56.25
2022-12-20T13:48:42.970Z,50.63
2022-12-20T13:49:43.621Z,50.63
2022-12-20T13:50:43.752Z,45
2022-12-20T13:51:44.678Z,45
2022-12-20T13:52:45.970Z,39.38
2022-12-20T13:53:46.533Z,39.38
2022-12-20T13:54:46.754Z,33.75
2022-12-20T13:55:46.998Z,33.75
2022-12-20T13:56:47.242Z,33.75
2022-12-20T13:57:47.504Z,33.75
2022-12-20T13:58:48.490Z,33.75